sensor_id;sensor_type;location;lat;lon;timestamp;P1;durP1;ratioP1;P2;durP2;ratioP2
16228;SDS011;8222;51.462;12.630;2022-12-19T00:03:49;20.60;;;14.47;;
16228;SDS011;8222;51.462;12.630;2022-12-19T00:06:20;21.73;;;14.20;;
16228;SDS011;8222;51.462;12.630;2022-12-19T00:08:49;20.15;;;14.52;;
16228;SDS011;8222;51.462;12.630;2022-12-19T00:11:17;21.15;;;14.23;;
16228;SDS011;8222;51.462;12.630;2022-12-19T00:13:47;21.75;;;14.77;;
16228;SDS011;8222;51.462;12.630;2022-12-19T00:16:16;20.85;;;14.38;;
16228;SDS011;8222;51.462;12.630;2022-12-19T00:18:45;19.92;;;13.88;;
16228;SDS011;8222;51.462;12.630;2022-12-19T00:21:15;20.45;;;14.05;;
16228;SDS011;8222;51.462;12.630;2022-12-19T00:23:46;23.67;;;15.20;;
16228;SDS011;8222;51.462;12.630;2022-12-19T00:28:48;21.67;;;14.95;;
16228;SDS011;8222;51.462;12.630;2022-12-19T00:31:16;20.73;;;14.77;;
16228;SDS011;8222;51.462;12.630;2022-12-19T00:33:45;20.88;;;15.50;;
16228;SDS011;8222;51.462;12.630;2022-12-19T00:36:14;18.48;;;14.27;;
16228;SDS011;8222;51.462;12.630;2022-12-19T00:38:44;21.15;;;14.77;;
16228;SDS011;8222;51.462;12.630;2022-12-19T00:41:12;20.15;;;15.00;;
16228;SDS011;8222;51.462;12.630;2022-12-19T00:43:43;20.10;;;13.93;;
16228;SDS011;8222;51.462;12.630;2022-12-19T00:46:10;20.67;;;13.87;;
16228;SDS011;8222;51.462;12.630;2022-12-19T00:48:37;22.60;;;13.98;;
16228;SDS011;8222;51.462;12.630;2022-12-19T00:51:09;22.65;;;15.13;;
16228;SDS011;8222;51.462;12.630;2022-12-19T00:53:36;21.80;;;14.80;;
16228;SDS011;8222;51.462;12.630;2022-12-19T00:56:03;19.98;;;14.13;;
16228;SDS011;8222;51.462;12.630;2022-12-19T00:58:32;20.70;;;14.25;;
16228;SDS011;8222;51.462;12.630;2022-12-19T01:01:12;21.83;;;15.35;;
16228;SDS011;8222;51.462;12.630;2022-12-19T01:03:40;21.65;;;14.85;;
16228;SDS011;8222;51.462;12.630;2022-12-19T01:06:06;20.60;;;13.53;;
16228;SDS011;8222;51.462;12.630;2022-12-19T01:08:32;19.47;;;13.20;;
16228;SDS011;8222;51.462;12.630;2022-12-19T01:11:02;21.38;;;14.50;;
16228;SDS011;8222;51.462;12.630;2022-12-19T01:13:29;21.40;;;13.98;;
16228;SDS011;8222;51.462;12.630;2022-12-19T01:16:06;22.17;;;15.13;;
16228;SDS011;8222;51.462;12.630;2022-12-19T01:18:33;19.77;;;14.23;;
16228;SDS011;8222;51.462;12.630;2022-12-19T01:21:00;19.52;;;14.07;;
16228;SDS011;8222;51.462;12.630;2022-12-19T01:23:27;20.23;;;13.95;;
16228;SDS011;8222;51.462;12.630;2022-12-19T01:25:53;16.42;;;12.73;;
16228;SDS011;8222;51.462;12.630;2022-12-19T01:28:25;18.67;;;12.82;;
16228;SDS011;8222;51.462;12.630;2022-12-19T01:30:53;25.02;;;15.15;;
16228;SDS011;8222;51.462;12.630;2022-12-19T01:33:21;22.10;;;14.63;;
16228;SDS011;8222;51.462;12.630;2022-12-19T01:35:48;21.53;;;14.23;;
16228;SDS011;8222;51.462;12.630;2022-12-19T01:38:17;22.27;;;15.20;;
16228;SDS011;8222;51.462;12.630;2022-12-19T01:40:50;20.42;;;14.38;;
16228;SDS011;8222;51.462;12.630;2022-12-19T01:43:17;21.20;;;14.65;;
16228;SDS011;8222;51.462;12.630;2022-12-19T01:45:45;22.08;;;14.88;;
16228;SDS011;8222;51.462;12.630;2022-12-19T01:48:25;21.40;;;14.65;;
16228;SDS011;8222;51.462;12.630;2022-12-19T01:51:14;26.33;;;16.20;;
16228;SDS011;8222;51.462;12.630;2022-12-19T01:53:47;21.38;;;15.35;;
16228;SDS011;8222;51.462;12.630;2022-12-19T01:56:18;19.52;;;14.85;;
16228;SDS011;8222;51.462;12.630;2022-12-19T01:58:48;16.80;;;11.97;;
16228;SDS011;8222;51.462;12.630;2022-12-19T02:01:17;22.40;;;14.33;;
16228;SDS011;8222;51.462;12.630;2022-12-19T02:03:45;20.30;;;14.52;;
16228;SDS011;8222;51.462;12.630;2022-12-19T02:06:12;20.43;;;13.50;;
16228;SDS011;8222;51.462;12.630;2022-12-19T02:08:39;20.33;;;15.07;;
16228;SDS011;8222;51.462;12.630;2022-12-19T02:11:06;17.03;;;12.07;;
16228;SDS011;8222;51.462;12.630;2022-12-19T02:13:31;19.30;;;13.67;;
16228;SDS011;8222;51.462;12.630;2022-12-19T02:16:05;22.00;;;15.55;;
16228;SDS011;8222;51.462;12.630;2022-12-19T02:19:08;19.25;;;13.90;;
16228;SDS011;8222;51.462;12.630;2022-12-19T02:21:53;20.48;;;14.48;;
16228;SDS011;8222;51.462;12.630;2022-12-19T02:33:00;21.05;;;14.15;;
16228;SDS011;8222;51.462;12.630;2022-12-19T02:43:34;17.20;;;12.93;;
16228;SDS011;8222;51.462;12.630;2022-12-19T02:46:03;19.92;;;13.25;;
16228;SDS011;8222;51.462;12.630;2022-12-19T02:48:33;19.88;;;13.57;;
16228;SDS011;8222;51.462;12.630;2022-12-19T02:50:59;19.02;;;12.52;;
16228;SDS011;8222;51.462;12.630;2022-12-19T02:53:26;17.63;;;13.07;;
16228;SDS011;8222;51.462;12.630;2022-12-19T03:01:51;20.50;;;13.68;;
16228;SDS011;8222;51.462;12.630;2022-12-19T03:04:44;14.82;;;11.02;;
16228;SDS011;8222;51.462;12.630;2022-12-19T03:07:30;16.10;;;11.48;;
16228;SDS011;8222;51.462;12.630;2022-12-19T03:12:49;15.23;;;10.60;;
16228;SDS011;8222;51.462;12.630;2022-12-19T03:15:28;17.50;;;11.50;;
16228;SDS011;8222;51.462;12.630;2022-12-19T03:17:56;16.45;;;11.07;;
16228;SDS011;8222;51.462;12.630;2022-12-19T03:23:08;15.48;;;11.73;;
16228;SDS011;8222;51.462;12.630;2022-12-19T03:25:34;17.88;;;11.32;;
16228;SDS011;8222;51.462;12.630;2022-12-19T03:28:00;14.37;;;10.43;;
16228;SDS011;8222;51.462;12.630;2022-12-19T03:30:35;14.65;;;10.25;;
16228;SDS011;8222;51.462;12.630;2022-12-19T03:33:05;14.25;;;10.63;;
16228;SDS011;8222;51.462;12.630;2022-12-19T03:35:33;14.30;;;10.48;;
16228;SDS011;8222;51.462;12.630;2022-12-19T03:38:03;13.48;;;8.18;;
16228;SDS011;8222;51.462;12.630;2022-12-19T03:40:30;14.35;;;9.70;;
16228;SDS011;8222;51.462;12.630;2022-12-19T03:43:02;15.25;;;10.10;;
16228;SDS011;8222;51.462;12.630;2022-12-19T03:53:52;13.77;;;10.27;;
16228;SDS011;8222;51.462;12.630;2022-12-19T03:59:17;16.48;;;11.07;;
16228;SDS011;8222;51.462;12.630;2022-12-19T04:02:00;16.27;;;10.57;;
16228;SDS011;8222;51.462;12.630;2022-12-19T04:04:27;16.50;;;9.93;;
16228;SDS011;8222;51.462;12.630;2022-12-19T04:06:57;13.98;;;10.82;;
16228;SDS011;8222;51.462;12.630;2022-12-19T04:09:23;13.63;;;10.23;;
16228;SDS011;8222;51.462;12.630;2022-12-19T04:11:52;15.77;;;9.70;;
16228;SDS011;8222;51.462;12.630;2022-12-19T04:14:28;12.50;;;9.68;;
16228;SDS011;8222;51.462;12.630;2022-12-19T04:20:20;14.63;;;10.53;;
16228;SDS011;8222;51.462;12.630;2022-12-19T04:25:28;12.25;;;9.82;;
16228;SDS011;8222;51.462;12.630;2022-12-19T04:27:59;14.57;;;10.13;;
16228;SDS011;8222;51.462;12.630;2022-12-19T04:30:38;15.05;;;10.30;;
16228;SDS011;8222;51.462;12.630;2022-12-19T04:33:06;12.65;;;9.70;;
16228;SDS011;8222;51.462;12.630;2022-12-19T04:35:32;12.53;;;8.57;;
16228;SDS011;8222;51.462;12.630;2022-12-19T04:38:02;13.23;;;9.65;;
16228;SDS011;8222;51.462;12.630;2022-12-19T04:40:30;15.43;;;10.27;;
16228;SDS011;8222;51.462;12.630;2022-12-19T04:42:55;14.10;;;10.90;;
16228;SDS011;8222;51.462;12.630;2022-12-19T04:45:21;13.82;;;9.93;;
16228;SDS011;8222;51.462;12.630;2022-12-19T04:47:50;14.07;;;8.52;;
16228;SDS011;8222;51.462;12.630;2022-12-19T04:50:17;12.68;;;9.75;;
16228;SDS011;8222;51.462;12.630;2022-12-19T04:52:43;14.38;;;10.15;;
16228;SDS011;8222;51.462;12.630;2022-12-19T04:55:08;16.17;;;10.40;;
16228;SDS011;8222;51.462;12.630;2022-12-19T04:57:34;14.65;;;9.98;;
16228;SDS011;8222;51.462;12.630;2022-12-19T05:00:00;13.67;;;9.93;;
16228;SDS011;8222;51.462;12.630;2022-12-19T05:02:29;19.08;;;12.07;;
16228;SDS011;8222;51.462;12.630;2022-12-19T05:04:54;15.93;;;9.93;;
16228;SDS011;8222;51.462;12.630;2022-12-19T05:07:22;16.27;;;10.37;;
16228;SDS011;8222;51.462;12.630;2022-12-19T05:09:47;14.17;;;10.63;;
16228;SDS011;8222;51.462;12.630;2022-12-19T05:12:14;13.87;;;10.17;;
16228;SDS011;8222;51.462;12.630;2022-12-19T05:14:43;13.48;;;10.18;;
16228;SDS011;8222;51.462;12.630;2022-12-19T05:17:08;13.77;;;9.83;;
16228;SDS011;8222;51.462;12.630;2022-12-19T05:19:36;14.25;;;10.43;;
16228;SDS011;8222;51.462;12.630;2022-12-19T05:22:02;15.20;;;10.03;;
16228;SDS011;8222;51.462;12.630;2022-12-19T05:24:29;13.52;;;9.27;;
16228;SDS011;8222;51.462;12.630;2022-12-19T05:26:58;14.98;;;10.13;;
16228;SDS011;8222;51.462;12.630;2022-12-19T05:29:25;14.02;;;10.52;;
16228;SDS011;8222;51.462;12.630;2022-12-19T05:31:51;13.17;;;9.37;;
16228;SDS011;8222;51.462;12.630;2022-12-19T05:34:17;14.83;;;9.03;;
16228;SDS011;8222;51.462;12.630;2022-12-19T05:36:44;12.95;;;9.07;;
16228;SDS011;8222;51.462;12.630;2022-12-19T05:39:10;14.18;;;10.20;;
16228;SDS011;8222;51.462;12.630;2022-12-19T05:41:36;14.60;;;10.43;;
16228;SDS011;8222;51.462;12.630;2022-12-19T05:44:02;12.60;;;8.85;;
16228;SDS011;8222;51.462;12.630;2022-12-19T05:46:30;11.10;;;8.60;;
16228;SDS011;8222;51.462;12.630;2022-12-19T05:48:58;12.70;;;9.68;;
16228;SDS011;8222;51.462;12.630;2022-12-19T05:51:28;14.98;;;10.63;;
16228;SDS011;8222;51.462;12.630;2022-12-19T05:53:54;14.73;;;9.85;;
16228;SDS011;8222;51.462;12.630;2022-12-19T05:56:21;13.35;;;9.80;;
16228;SDS011;8222;51.462;12.630;2022-12-19T05:58:47;14.52;;;9.10;;
16228;SDS011;8222;51.462;12.630;2022-12-19T06:01:19;11.63;;;8.60;;
16228;SDS011;8222;51.462;12.630;2022-12-19T06:03:48;15.87;;;9.37;;
16228;SDS011;8222;51.462;12.630;2022-12-19T06:06:18;11.38;;;8.75;;
16228;SDS011;8222;51.462;12.630;2022-12-19T06:08:46;14.23;;;10.30;;
16228;SDS011;8222;51.462;12.630;2022-12-19T06:11:12;13.63;;;10.00;;
16228;SDS011;8222;51.462;12.630;2022-12-19T06:13:38;12.98;;;9.30;;
16228;SDS011;8222;51.462;12.630;2022-12-19T06:16:06;11.80;;;7.95;;
16228;SDS011;8222;51.462;12.630;2022-12-19T06:18:35;13.95;;;9.45;;
16228;SDS011;8222;51.462;12.630;2022-12-19T06:21:04;14.45;;;9.82;;
16228;SDS011;8222;51.462;12.630;2022-12-19T06:23:34;14.25;;;10.25;;
16228;SDS011;8222;51.462;12.630;2022-12-19T06:26:01;15.95;;;10.05;;
16228;SDS011;8222;51.462;12.630;2022-12-19T06:28:30;11.02;;;8.63;;
16228;SDS011;8222;51.462;12.630;2022-12-19T06:30:57;12.77;;;9.07;;
16228;SDS011;8222;51.462;12.630;2022-12-19T06:33:23;13.05;;;9.25;;
16228;SDS011;8222;51.462;12.630;2022-12-19T06:35:59;12.95;;;9.43;;
16228;SDS011;8222;51.462;12.630;2022-12-19T06:38:32;15.25;;;11.00;;
16228;SDS011;8222;51.462;12.630;2022-12-19T06:41:01;13.80;;;9.55;;
16228;SDS011;8222;51.462;12.630;2022-12-19T06:43:46;13.43;;;9.88;;
16228;SDS011;8222;51.462;12.630;2022-12-19T06:46:14;13.30;;;9.90;;
16228;SDS011;8222;51.462;12.630;2022-12-19T06:48:39;17.83;;;9.80;;
16228;SDS011;8222;51.462;12.630;2022-12-19T06:51:05;15.82;;;9.73;;
16228;SDS011;8222;51.462;12.630;2022-12-19T06:53:31;14.43;;;10.27;;
16228;SDS011;8222;51.462;12.630;2022-12-19T06:55:59;14.32;;;10.48;;
16228;SDS011;8222;51.462;12.630;2022-12-19T06:58:25;13.83;;;10.43;;
16228;SDS011;8222;51.462;12.630;2022-12-19T07:00:51;13.65;;;12.15;;
16228;SDS011;8222;51.462;12.630;2022-12-19T07:03:25;13.73;;;10.40;;
16228;SDS011;8222;51.462;12.630;2022-12-19T07:05:54;12.52;;;9.55;;
16228;SDS011;8222;51.462;12.630;2022-12-19T07:08:20;12.77;;;9.90;;
16228;SDS011;8222;51.462;12.630;2022-12-19T07:10:46;13.30;;;10.20;;
16228;SDS011;8222;51.462;12.630;2022-12-19T07:13:13;30.30;;;23.05;;
16228;SDS011;8222;51.462;12.630;2022-12-19T07:15:39;14.10;;;10.18;;
16228;SDS011;8222;51.462;12.630;2022-12-19T07:18:07;13.68;;;10.45;;
16228;SDS011;8222;51.462;12.630;2022-12-19T07:20:36;16.07;;;9.77;;
16228;SDS011;8222;51.462;12.630;2022-12-19T07:23:04;14.07;;;10.50;;
16228;SDS011;8222;51.462;12.630;2022-12-19T07:25:33;14.55;;;9.70;;
16228;SDS011;8222;51.462;12.630;2022-12-19T07:28:00;14.05;;;10.23;;
16228;SDS011;8222;51.462;12.630;2022-12-19T07:30:28;12.05;;;10.18;;
16228;SDS011;8222;51.462;12.630;2022-12-19T07:32:54;13.15;;;10.23;;
16228;SDS011;8222;51.462;12.630;2022-12-19T07:35:19;14.97;;;10.67;;
16228;SDS011;8222;51.462;12.630;2022-12-19T07:37:47;12.73;;;10.10;;
16228;SDS011;8222;51.462;12.630;2022-12-19T07:40:13;15.85;;;10.50;;
16228;SDS011;8222;51.462;12.630;2022-12-19T07:42:39;15.10;;;11.00;;
16228;SDS011;8222;51.462;12.630;2022-12-19T07:45:05;15.68;;;10.70;;
16228;SDS011;8222;51.462;12.630;2022-12-19T07:47:31;14.70;;;11.07;;
16228;SDS011;8222;51.462;12.630;2022-12-19T07:49:59;15.18;;;10.68;;
16228;SDS011;8222;51.462;12.630;2022-12-19T07:52:25;14.27;;;10.00;;
16228;SDS011;8222;51.462;12.630;2022-12-19T07:54:51;16.17;;;10.88;;
16228;SDS011;8222;51.462;12.630;2022-12-19T07:57:19;14.43;;;10.33;;
16228;SDS011;8222;51.462;12.630;2022-12-19T07:59:46;13.20;;;10.32;;
16228;SDS011;8222;51.462;12.630;2022-12-19T08:02:12;14.87;;;10.53;;
16228;SDS011;8222;51.462;12.630;2022-12-19T08:04:37;16.73;;;12.10;;
16228;SDS011;8222;51.462;12.630;2022-12-19T08:07:03;18.63;;;15.05;;
16228;SDS011;8222;51.462;12.630;2022-12-19T08:09:29;17.25;;;14.27;;
16228;SDS011;8222;51.462;12.630;2022-12-19T08:11:55;14.73;;;11.73;;
16228;SDS011;8222;51.462;12.630;2022-12-19T08:14:22;19.63;;;13.75;;
16228;SDS011;8222;51.462;12.630;2022-12-19T08:16:48;15.20;;;11.52;;
16228;SDS011;8222;51.462;12.630;2022-12-19T08:19:18;15.35;;;11.68;;
16228;SDS011;8222;51.462;12.630;2022-12-19T08:21:43;15.37;;;11.43;;
16228;SDS011;8222;51.462;12.630;2022-12-19T08:24:09;18.08;;;14.25;;
16228;SDS011;8222;51.462;12.630;2022-12-19T08:26:35;15.52;;;10.90;;
16228;SDS011;8222;51.462;12.630;2022-12-19T08:29:01;15.88;;;11.85;;
16228;SDS011;8222;51.462;12.630;2022-12-19T08:31:28;15.88;;;11.95;;
16228;SDS011;8222;51.462;12.630;2022-12-19T08:33:54;14.88;;;10.90;;
16228;SDS011;8222;51.462;12.630;2022-12-19T08:36:23;14.32;;;11.68;;
16228;SDS011;8222;51.462;12.630;2022-12-19T08:38:51;17.55;;;14.15;;
16228;SDS011;8222;51.462;12.630;2022-12-19T08:41:17;15.13;;;11.07;;
16228;SDS011;8222;51.462;12.630;2022-12-19T08:43:46;15.20;;;11.85;;
16228;SDS011;8222;51.462;12.630;2022-12-19T08:46:16;12.85;;;10.63;;
16228;SDS011;8222;51.462;12.630;2022-12-19T08:48:42;15.60;;;11.43;;
16228;SDS011;8222;51.462;12.630;2022-12-19T08:51:10;15.45;;;11.18;;
16228;SDS011;8222;51.462;12.630;2022-12-19T08:53:38;15.75;;;10.95;;
16228;SDS011;8222;51.462;12.630;2022-12-19T08:56:06;14.18;;;10.40;;
16228;SDS011;8222;51.462;12.630;2022-12-19T08:58:32;15.52;;;11.20;;
16228;SDS011;8222;51.462;12.630;2022-12-19T09:01:07;14.77;;;10.83;;
16228;SDS011;8222;51.462;12.630;2022-12-19T09:03:35;13.38;;;10.57;;
16228;SDS011;8222;51.462;12.630;2022-12-19T09:06:02;15.90;;;9.82;;
16228;SDS011;8222;51.462;12.630;2022-12-19T09:08:30;14.27;;;10.88;;
16228;SDS011;8222;51.462;12.630;2022-12-19T09:11:13;13.88;;;10.18;;
16228;SDS011;8222;51.462;12.630;2022-12-19T09:13:41;14.35;;;11.82;;
16228;SDS011;8222;51.462;12.630;2022-12-19T09:16:16;13.48;;;9.82;;
16228;SDS011;8222;51.462;12.630;2022-12-19T09:18:44;12.60;;;10.15;;
16228;SDS011;8222;51.462;12.630;2022-12-19T09:21:16;13.30;;;10.57;;
16228;SDS011;8222;51.462;12.630;2022-12-19T09:23:46;14.02;;;10.98;;
16228;SDS011;8222;51.462;12.630;2022-12-19T09:26:13;12.80;;;10.43;;
16228;SDS011;8222;51.462;12.630;2022-12-19T09:28:39;14.63;;;10.93;;
16228;SDS011;8222;51.462;12.630;2022-12-19T09:31:09;15.35;;;11.30;;
16228;SDS011;8222;51.462;12.630;2022-12-19T09:33:37;14.60;;;11.02;;
16228;SDS011;8222;51.462;12.630;2022-12-19T09:36:03;14.43;;;9.35;;
16228;SDS011;8222;51.462;12.630;2022-12-19T09:38:30;14.13;;;9.88;;
16228;SDS011;8222;51.462;12.630;2022-12-19T09:48:40;13.85;;;10.10;;
16228;SDS011;8222;51.462;12.630;2022-12-19T09:51:12;12.10;;;10.02;;
16228;SDS011;8222;51.462;12.630;2022-12-19T09:56:25;13.17;;;10.60;;
16228;SDS011;8222;51.462;12.630;2022-12-19T09:59:03;13.75;;;10.35;;
16228;SDS011;8222;51.462;12.630;2022-12-19T10:01:43;13.18;;;10.43;;
16228;SDS011;8222;51.462;12.630;2022-12-19T10:04:20;13.93;;;10.75;;
16228;SDS011;8222;51.462;12.630;2022-12-19T10:06:50;12.65;;;10.50;;
16228;SDS011;8222;51.462;12.630;2022-12-19T10:09:16;14.15;;;10.38;;
16228;SDS011;8222;51.462;12.630;2022-12-19T10:11:59;13.48;;;10.70;;
16228;SDS011;8222;51.462;12.630;2022-12-19T10:22:55;13.85;;;10.32;;
16228;SDS011;8222;51.462;12.630;2022-12-19T10:25:44;13.23;;;10.60;;
16228;SDS011;8222;51.462;12.630;2022-12-19T10:28:24;15.55;;;11.18;;
16228;SDS011;8222;51.462;12.630;2022-12-19T10:34:16;15.93;;;12.07;;
16228;SDS011;8222;51.462;12.630;2022-12-19T10:36:55;14.82;;;10.77;;
16228;SDS011;8222;51.462;12.630;2022-12-19T10:39:29;14.93;;;11.10;;
16228;SDS011;8222;51.462;12.630;2022-12-19T10:42:06;13.82;;;10.55;;
16228;SDS011;8222;51.462;12.630;2022-12-19T10:44:38;15.93;;;10.77;;
16228;SDS011;8222;51.462;12.630;2022-12-19T10:47:06;15.93;;;11.65;;
16228;SDS011;8222;51.462;12.630;2022-12-19T10:49:39;15.43;;;11.63;;
16228;SDS011;8222;51.462;12.630;2022-12-19T10:52:05;16.10;;;11.45;;
16228;SDS011;8222;51.462;12.630;2022-12-19T10:59:58;17.58;;;12.05;;
16228;SDS011;8222;51.462;12.630;2022-12-19T11:02:39;15.82;;;10.88;;
16228;SDS011;8222;51.462;12.630;2022-12-19T11:10:53;16.20;;;11.30;;
16228;SDS011;8222;51.462;12.630;2022-12-19T11:13:22;16.00;;;12.15;;
16228;SDS011;8222;51.462;12.630;2022-12-19T11:16:07;17.15;;;12.18;;
16228;SDS011;8222;51.462;12.630;2022-12-19T11:26:29;16.30;;;11.90;;
16228;SDS011;8222;51.462;12.630;2022-12-19T11:28:57;15.73;;;11.77;;
16228;SDS011;8222;51.462;12.630;2022-12-19T11:31:31;17.40;;;11.93;;
16228;SDS011;8222;51.462;12.630;2022-12-19T11:34:04;16.92;;;11.98;;
16228;SDS011;8222;51.462;12.630;2022-12-19T11:36:38;17.25;;;11.15;;
16228;SDS011;8222;51.462;12.630;2022-12-19T11:39:28;14.95;;;11.77;;
16228;SDS011;8222;51.462;12.630;2022-12-19T11:56:23;16.55;;;11.68;;
16228;SDS011;8222;51.462;12.630;2022-12-19T11:58:55;14.85;;;10.23;;
16228;SDS011;8222;51.462;12.630;2022-12-19T12:01:30;13.68;;;10.25;;
16228;SDS011;8222;51.462;12.630;2022-12-19T12:04:22;11.95;;;9.05;;
16228;SDS011;8222;51.462;12.630;2022-12-19T12:07:10;14.88;;;9.88;;
16228;SDS011;8222;51.462;12.630;2022-12-19T12:15:27;13.43;;;9.88;;
16228;SDS011;8222;51.462;12.630;2022-12-19T12:26:27;13.93;;;9.63;;
16228;SDS011;8222;51.462;12.630;2022-12-19T12:29:23;14.60;;;9.10;;
16228;SDS011;8222;51.462;12.630;2022-12-19T12:34:56;15.15;;;10.45;;
16228;SDS011;8222;51.462;12.630;2022-12-19T12:39:52;14.07;;;9.32;;
16228;SDS011;8222;51.462;12.630;2022-12-19T12:45:59;13.93;;;10.23;;
16228;SDS011;8222;51.462;12.630;2022-12-19T12:48:33;14.43;;;9.50;;
16228;SDS011;8222;51.462;12.630;2022-12-19T12:51:22;13.40;;;9.55;;
16228;SDS011;8222;51.462;12.630;2022-12-19T12:53:49;15.68;;;9.70;;
16228;SDS011;8222;51.462;12.630;2022-12-19T12:56:30;16.55;;;9.45;;
16228;SDS011;8222;51.462;12.630;2022-12-19T12:59:06;14.55;;;9.88;;
16228;SDS011;8222;51.462;12.630;2022-12-19T13:01:42;17.08;;;11.23;;
16228;SDS011;8222;51.462;12.630;2022-12-19T13:06:39;16.03;;;11.87;;
16228;SDS011;8222;51.462;12.630;2022-12-19T13:09:34;14.05;;;10.85;;
16228;SDS011;8222;51.462;12.630;2022-12-19T13:12:17;16.80;;;11.18;;
16228;SDS011;8222;51.462;12.630;2022-12-19T13:22:43;15.43;;;10.23;;
16228;SDS011;8222;51.462;12.630;2022-12-19T13:31:11;12.47;;;9.33;;
16228;SDS011;8222;51.462;12.630;2022-12-19T13:36:47;16.05;;;11.88;;
16228;SDS011;8222;51.462;12.630;2022-12-19T13:39:21;17.90;;;11.50;;
16228;SDS011;8222;51.462;12.630;2022-12-19T13:41:48;15.32;;;11.05;;
16228;SDS011;8222;51.462;12.630;2022-12-19T13:44:35;20.15;;;13.18;;
16228;SDS011;8222;51.462;12.630;2022-12-19T13:47:04;18.50;;;11.90;;
16228;SDS011;8222;51.462;12.630;2022-12-19T13:49:31;15.73;;;11.45;;
16228;SDS011;8222;51.462;12.630;2022-12-19T13:52:00;16.33;;;11.73;;
16228;SDS011;8222;51.462;12.630;2022-12-19T13:54:29;16.65;;;11.55;;
16228;SDS011;8222;51.462;12.630;2022-12-19T13:57:23;17.27;;;12.35;;
16228;SDS011;8222;51.462;12.630;2022-12-19T13:59:54;18.10;;;12.48;;
16228;SDS011;8222;51.462;12.630;2022-12-19T14:02:33;15.02;;;11.05;;
16228;SDS011;8222;51.462;12.630;2022-12-19T14:05:01;17.15;;;11.85;;
16228;SDS011;8222;51.462;12.630;2022-12-19T14:10:04;15.65;;;11.70;;
16228;SDS011;8222;51.462;12.630;2022-12-19T14:12:47;18.40;;;11.50;;
16228;SDS011;8222;51.462;12.630;2022-12-19T14:15:36;20.25;;;13.02;;
16228;SDS011;8222;51.462;12.630;2022-12-19T14:18:29;16.58;;;12.23;;
16228;SDS011;8222;51.462;12.630;2022-12-19T14:24:12;20.70;;;12.98;;
16228;SDS011;8222;51.462;12.630;2022-12-19T14:26:39;16.85;;;12.57;;
16228;SDS011;8222;51.462;12.630;2022-12-19T14:31:59;37.53;;;26.45;;
16228;SDS011;8222;51.462;12.630;2022-12-19T14:34:30;18.85;;;12.75;;
16228;SDS011;8222;51.462;12.630;2022-12-19T14:36:59;17.73;;;12.48;;
16228;SDS011;8222;51.462;12.630;2022-12-19T14:39:31;18.37;;;12.77;;
16228;SDS011;8222;51.462;12.630;2022-12-19T14:42:02;17.65;;;12.20;;
16228;SDS011;8222;51.462;12.630;2022-12-19T14:44:56;17.55;;;12.05;;
16228;SDS011;8222;51.462;12.630;2022-12-19T14:47:46;19.20;;;13.00;;
16228;SDS011;8222;51.462;12.630;2022-12-19T14:53:05;13.27;;;10.27;;
16228;SDS011;8222;51.462;12.630;2022-12-19T14:55:43;19.45;;;13.30;;
16228;SDS011;8222;51.462;12.630;2022-12-19T14:58:28;17.83;;;11.88;;
16228;SDS011;8222;51.462;12.630;2022-12-19T15:00:56;21.67;;;13.18;;
16228;SDS011;8222;51.462;12.630;2022-12-19T15:03:34;19.77;;;14.10;;
16228;SDS011;8222;51.462;12.630;2022-12-19T15:06:07;18.05;;;12.60;;
16228;SDS011;8222;51.462;12.630;2022-12-19T15:08:44;21.98;;;14.27;;
16228;SDS011;8222;51.462;12.630;2022-12-19T15:14:31;17.98;;;13.07;;
16228;SDS011;8222;51.462;12.630;2022-12-19T15:17:27;23.98;;;16.50;;
16228;SDS011;8222;51.462;12.630;2022-12-19T15:19:52;17.65;;;12.43;;
16228;SDS011;8222;51.462;12.630;2022-12-19T15:22:20;20.92;;;13.68;;
16228;SDS011;8222;51.462;12.630;2022-12-19T15:24:48;20.17;;;14.00;;
16228;SDS011;8222;51.462;12.630;2022-12-19T15:27:15;21.80;;;14.30;;
16228;SDS011;8222;51.462;12.630;2022-12-19T15:29:42;20.02;;;13.40;;
16228;SDS011;8222;51.462;12.630;2022-12-19T15:32:13;17.80;;;12.90;;
16228;SDS011;8222;51.462;12.630;2022-12-19T15:34:43;21.73;;;15.00;;
16228;SDS011;8222;51.462;12.630;2022-12-19T15:37:12;22.07;;;14.57;;
16228;SDS011;8222;51.462;12.630;2022-12-19T15:39:39;20.17;;;14.57;;
16228;SDS011;8222;51.462;12.630;2022-12-19T15:42:05;19.98;;;15.45;;
16228;SDS011;8222;51.462;12.630;2022-12-19T15:44:46;18.75;;;14.15;;
16228;SDS011;8222;51.462;12.630;2022-12-19T15:47:24;19.08;;;13.88;;
16228;SDS011;8222;51.462;12.630;2022-12-19T15:49:54;17.33;;;14.05;;
16228;SDS011;8222;51.462;12.630;2022-12-19T15:52:26;16.63;;;13.50;;
16228;SDS011;8222;51.462;12.630;2022-12-19T15:54:52;19.70;;;13.57;;
16228;SDS011;8222;51.462;12.630;2022-12-19T15:57:36;19.13;;;14.05;;
16228;SDS011;8222;51.462;12.630;2022-12-19T16:00:07;17.30;;;12.83;;
16228;SDS011;8222;51.462;12.630;2022-12-19T16:02:43;20.80;;;13.52;;
16228;SDS011;8222;51.462;12.630;2022-12-19T16:05:09;21.07;;;13.10;;
16228;SDS011;8222;51.462;12.630;2022-12-19T16:07:36;25.40;;;19.43;;
16228;SDS011;8222;51.462;12.630;2022-12-19T16:10:01;15.40;;;10.73;;
16228;SDS011;8222;51.462;12.630;2022-12-19T16:12:31;20.65;;;14.43;;
16228;SDS011;8222;51.462;12.630;2022-12-19T16:15:00;20.73;;;14.38;;
16228;SDS011;8222;51.462;12.630;2022-12-19T16:17:29;19.50;;;14.02;;
16228;SDS011;8222;51.462;12.630;2022-12-19T16:19:58;19.58;;;13.55;;
16228;SDS011;8222;51.462;12.630;2022-12-19T16:22:25;17.80;;;12.32;;
16228;SDS011;8222;51.462;12.630;2022-12-19T16:24:52;19.25;;;13.18;;
16228;SDS011;8222;51.462;12.630;2022-12-19T16:27:24;15.73;;;12.15;;
16228;SDS011;8222;51.462;12.630;2022-12-19T16:30:05;21.67;;;14.07;;
16228;SDS011;8222;51.462;12.630;2022-12-19T16:32:42;22.45;;;14.32;;
16228;SDS011;8222;51.462;12.630;2022-12-19T16:35:12;22.02;;;14.15;;
16228;SDS011;8222;51.462;12.630;2022-12-19T16:37:40;18.17;;;14.15;;
16228;SDS011;8222;51.462;12.630;2022-12-19T16:40:17;19.52;;;13.82;;
16228;SDS011;8222;51.462;12.630;2022-12-19T16:42:47;20.98;;;14.02;;
16228;SDS011;8222;51.462;12.630;2022-12-19T16:45:20;21.27;;;13.05;;
16228;SDS011;8222;51.462;12.630;2022-12-19T16:48:15;17.90;;;13.02;;
16228;SDS011;8222;51.462;12.630;2022-12-19T16:50:44;18.90;;;13.90;;
16228;SDS011;8222;51.462;12.630;2022-12-19T16:53:09;18.63;;;13.18;;
16228;SDS011;8222;51.462;12.630;2022-12-19T16:55:35;19.55;;;13.82;;
16228;SDS011;8222;51.462;12.630;2022-12-19T16:58:03;26.13;;;19.20;;
16228;SDS011;8222;51.462;12.630;2022-12-19T17:00:32;18.23;;;13.10;;
16228;SDS011;8222;51.462;12.630;2022-12-19T17:03:08;17.77;;;12.52;;
16228;SDS011;8222;51.462;12.630;2022-12-19T17:06:14;17.88;;;13.07;;
16228;SDS011;8222;51.462;12.630;2022-12-19T17:08:42;18.02;;;13.38;;
16228;SDS011;8222;51.462;12.630;2022-12-19T17:11:15;18.05;;;12.82;;
16228;SDS011;8222;51.462;12.630;2022-12-19T17:13:54;19.52;;;14.73;;
16228;SDS011;8222;51.462;12.630;2022-12-19T17:16:27;19.67;;;14.68;;
16228;SDS011;8222;51.462;12.630;2022-12-19T17:18:58;19.05;;;13.02;;
16228;SDS011;8222;51.462;12.630;2022-12-19T17:21:25;17.85;;;13.50;;
16228;SDS011;8222;51.462;12.630;2022-12-19T17:23:53;22.83;;;14.40;;
16228;SDS011;8222;51.462;12.630;2022-12-19T17:26:18;18.53;;;12.37;;
16228;SDS011;8222;51.462;12.630;2022-12-19T17:28:46;18.88;;;13.77;;